Flight Track Log - Related Links

Times and Time Zones

All times are in EDT time to prevent confusion due to time zone crossing. See the AAL1404 flight status page for this flight to view local times or setup timezone preferences in your user account.

Time Position Orientation Groundspeed Altitude Reporting Facility
EDT Latitude Longitude Course Direction KTS MPH feet Rate Location/Type
Sat 07:13:08 PM 25.7983 -80.2631 48° Northeast 161 185 900  Level Miami Center
Sat 07:14:09 PM 25.8039 -80.2078 84° East 206 237 2,400 1,367 Climbing Miami Center
Sat 07:14:27 PM 25.8064 -80.1917 80° East 227 261 2,700 2,000 Climbing Miami Center
Sat 07:15:00 PM 25.8722 -79.9333 53° Northeast  Level FlightAware Approximate
Sat 07:15:27 PM 25.8206 -80.1181 78° East 246 283 5,000  Level Miami Center
Sat 07:16:00 PM 25.9413 -79.8322 52° Northeast  Level FlightAware Approximate
Sat 07:16:27 PM 25.8431 -80.0425 72° East 246 283 7,300  Level Miami Center
Sat 07:17:00 PM 26.0096 -79.7307 61° Northeast  Level FlightAware Approximate
Sat 07:17:27 PM 25.8844 -79.9697 58° Northeast 258 297 10,200  Level Miami Center
Sat 07:18:00 PM 26.0830 -79.6337 48° Northeast  Level FlightAware Approximate
Sat 07:18:27 PM 25.9339 -79.8947 54° Northeast 276 318 11,500  Level Miami Center
Sat 07:19:27 PM 25.9900 -79.8039 55° Northeast 317 365 13,700 2,450 Climbing Miami Center
Sat 07:20:27 PM 26.0483 -79.7106 55° Northeast 352 405 16,400 2,550 Climbing Miami Center
Sat 07:21:27 PM 26.1108 -79.6103 55° Northeast 375 432 18,800 2,350 Climbing Miami Center
Sat 07:22:27 PM 26.1794 -79.5122 52° Northeast 387 445 21,100 2,200 Climbing Miami Center
Sat 07:23:27 PM 26.2953 -79.4569 23° Northeast 394 453 23,200 1,950 Climbing Miami Center
Sat 07:24:27 PM 26.3986 -79.4103 22° Northeast 421 484 25,000 1,900 Climbing Miami Center
Sat 07:25:27 PM 26.5269 -79.3528 22° Northeast 443 510 27,000 1,800 Climbing Miami Center
Sat 07:26:27 PM 26.6364 -79.3017 23° Northeast 453 521 28,600 1,600 Climbing Miami Center
Sat 07:27:27 PM 26.7564 -79.2483 22° Northeast 459 528 30,200 1,650 Climbing Miami Center
Sat 07:28:27 PM 26.8742 -79.1947 22° Northeast 454 522 31,900 1,600 Climbing Miami Center
Sat 07:29:27 PM 26.9881 -79.1389 24° Northeast 454 522 33,400 1,700 Climbing Miami Center
Sat 07:30:27 PM 27.1247 -79.0808 21° North 460 529 35,300 1,600 Climbing Miami Center
Sat 07:31:27 PM 27.2422 -79.0294 21° North 453 521 36,600 850 Climbing Miami Center
Sat 07:32:27 PM 27.3600 -78.9847 19° North 453 521 37,000 200 Climbing Miami Center
Sat 07:33:27 PM 27.4731 -78.9706 North 440 506 37,000  Level Miami Center
Sat 07:34:27 PM 27.5964 -78.9517 North 446 513 37,000  Level Miami Center
Sat 07:35:27 PM 27.7325 -78.9331 North 446 513 37,000  Level Miami Center
Sat 07:36:27 PM 27.8558 -78.9117 North 446 513 37,000  Level Miami Center
Sat 07:37:27 PM 27.9794 -78.8928 North 446 513 37,000  Level Miami Center
Sat 07:38:27 PM 28.1047 -78.8761 North 446 513 37,000  Level Miami Center
Sat 07:39:27 PM 28.2283 -78.8572 North 446 513 37,000  Level Miami Center
Sat 07:40:27 PM 28.3558 -78.8406 North 446 513 37,000 -50 Level Miami Center
Sat 07:41:27 PM 28.4792 -78.8217 North 446 513 36,900 -50 Descending Miami Center
Sat 07:42:27 PM 28.5983 -78.8022 North 446 513 36,900 50 Level Miami Center
Sat 07:43:27 PM 28.7217 -78.7878 North 441 507 37,000 50 Climbing Miami Center
Sat 07:44:27 PM 28.8389 -78.7661 North 446 513 37,000  Level Miami Center
Sat 07:45:27 PM 28.9622 -78.7494 North 446 513 37,000  Level Miami Center
Sat 07:46:27 PM 29.0856 -78.7325 North 446 513 37,000  Level Miami Center
Sat 07:47:27 PM 29.2069 -78.7156 North 446 513 37,000 -50 Level Miami Center
Sat 07:48:27 PM 29.3281 -78.6939 North 446 513 36,900  Descending Miami Center
Sat 07:49:27 PM 29.4453 -78.6719 North 440 506 37,000 50 Climbing Miami Center
Sat 07:50:27 PM 29.5725 -78.6572 North 440 506 37,000  Level Miami Center
Sat 07:52:04 PM 29.7544 -78.6156 11° North 424 488 37,000  Level Jacksonville Center
Sat 07:53:04 PM 29.8833 -78.6050 North 447 514 37,000  Level Jacksonville Center
Sat 07:54:04 PM 30.0036 -78.5828 North 457 526 37,000  Level Jacksonville Center
Sat 07:55:04 PM 30.1219 -78.5631 North 440 506 37,000  Level Jacksonville Center
Sat 07:56:04 PM 30.2322 -78.5486 North 439 505 37,000  Level Jacksonville Center
Sat 07:57:04 PM 30.3464 -78.5314 North 439 505 37,000 -50 Level Jacksonville Center
Sat 07:58:04 PM 30.4708 -78.5111 North 439 505 36,900  Descending Jacksonville Center
Sat 07:59:04 PM 30.5933 -78.4936 North 439 505 37,000 50 Climbing Jacksonville Center
Sat 08:00:04 PM 30.7181 -78.4733 North 444 511 37,000  Level Jacksonville Center
Sat 08:01:04 PM 30.8364 -78.4556 North 437 503 37,000 -50 Level Jacksonville Center
Sat 08:02:04 PM 30.9567 -78.4356 North 442 509 36,900  Descending Jacksonville Center
Sat 08:03:04 PM 31.0772 -78.4200 North 437 503 37,000 50 Climbing Jacksonville Center
Sat 08:04:04 PM 31.1997 -78.3972 North 442 509 37,000  Level Jacksonville Center
Sat 08:05:04 PM 31.3219 -78.3767 North 442 509 37,000  Level Jacksonville Center
Sat 08:06:04 PM 31.4425 -78.3589 North 442 509 37,000  Level Jacksonville Center
Sat 08:07:04 PM 31.5650 -78.3406 North 442 509 37,000  Level Jacksonville Center
Sat 08:08:04 PM 31.6875 -78.3200 North 442 509 37,000  Level Jacksonville Center
Sat 08:09:04 PM 31.8097 -78.2992 North 442 509 37,000 -50 Level Jacksonville Center
Sat 08:10:04 PM 31.9303 -78.2811 North 442 509 36,900 -50 Descending Jacksonville Center
Sat 08:11:04 PM 32.0650 -78.2594 North 444 511 36,900  Level Jacksonville Center
Sat 08:12:04 PM 32.1875 -78.2386 North 437 503 36,900 50 Level Jacksonville Center
Sat 08:13:04 PM 32.2931 -78.2111 12° North 437 503 37,000  Climbing Jacksonville Center
Sat 08:14:04 PM 32.4111 -78.1928 North 431 496 36,900  Descending Jacksonville Center
Sat 08:15:04 PM 32.5317 -78.1767 North 431 496 37,000 50 Climbing Jacksonville Center
Sat 08:16:04 PM 32.6497 -78.1558 North 426 490 37,000  Level Jacksonville Center
Sat 08:17:04 PM 32.7658 -78.1347 North 426 490 37,000  Level Jacksonville Center
Sat 08:18:04 PM 32.8842 -78.1161 North 426 490 37,000  Level Jacksonville Center
Sat 08:19:04 PM 33.0067 -78.0997 North 426 490 37,000  Level Jacksonville Center
Sat 08:20:04 PM 33.1247 -78.0786 North 426 490 37,000  Level Jacksonville Center
Sat 08:21:04 PM 33.2453 -78.0597 North 426 490 37,000  Level Jacksonville Center
Sat 08:23:03 PM 33.4858 -78.0192 North 429 494 37,000  Level Washington Center
Sat 08:24:04 PM 33.6053 -78.0003 North 429 494 37,000  Level Washington Center
Sat 08:25:05 PM 33.7267 -77.9814 North 429 494 37,000  Level Washington Center
Sat 08:26:03 PM 33.8417 -77.9619 North 429 494 37,000  Level Washington Center
Sat 08:27:05 PM 33.9653 -77.9381 North 435 501 37,000  Level Washington Center
Sat 08:28:04 PM 34.0867 -77.9214 North 435 501 37,000  Level Washington Center
Sat 08:29:05 PM 34.2017 -77.8994 North 428 493 37,000  Level Washington Center
Sat 08:30:03 PM 34.3336 -77.8806 North 428 493 37,000  Level Washington Center
Sat 08:31:03 PM 34.4506 -77.8661 North 423 487 37,000 -49 Level Washington Center
Sat 08:32:05 PM 34.5656 -77.8544 North 423 487 36,900 -50 Descending Washington Center
Sat 08:33:03 PM 34.6806 -77.8422 North 418 481 36,900 50 Level Washington Center
Sat 08:34:05 PM 34.7956 -77.8328 North 413 475 37,000 49 Climbing Washington Center
Sat 08:35:05 PM 34.8919 -77.8178 North 408 470 37,000  Level Washington Center
Sat 08:36:04 PM 35.0089 -77.8058 North 408 470 37,000  Level Washington Center
Sat 08:37:03 PM 35.1217 -77.7936 North 408 470 37,000  Level Washington Center
Sat 08:38:03 PM 35.2347 -77.7814 North 403 464 37,000  Level Washington Center
Sat 08:39:04 PM 35.3456 -77.7692 North 403 464 37,000  Level Washington Center
Sat 08:40:05 PM 35.4583 -77.7569 North 403 464 37,000  Level Washington Center
Sat 08:41:03 PM 35.5711 -77.7472 North 403 464 37,000  Level Washington Center
Sat 08:42:03 PM 35.6819 -77.7350 North 403 464 37,000 -393 Level Washington Center
Sat 08:43:05 PM 35.7969 -77.7225 North 409 471 36,200 -900 Descending Washington Center
Sat 08:44:03 PM 35.9119 -77.7103 North 409 471 35,200 -1,068 Descending Washington Center
Sat 08:45:03 PM 36.0272 -77.6903 North 409 471 34,100 -1,050 Descending Washington Center
Sat 08:46:03 PM 36.1464 -77.6653 10° North 414 476 33,100 -1,400 Descending Washington Center
Sat 08:47:03 PM 36.2617 -77.6347 12° North 414 476 31,300 -2,083 Descending Washington Center
Sat 08:48:04 PM 36.3686 -77.6092 11° North 414 476 28,900 -2,115 Descending Washington Center
Sat 08:49:05 PM 36.4858 -77.5786 12° North 412 474 27,000 -958 Descending Washington Center
Sat 08:50:03 PM 36.5950 -77.5503 12° North 400 460 27,000 -356 Level Washington Center
Sat 08:51:03 PM 36.7058 -77.5219 12° North 395 455 26,300 -934 Descending Washington Center
Sat 08:52:05 PM 36.8192 -77.4936 11° North 395 455 25,100 -1,131 Descending Washington Center
Sat 08:53:05 PM 36.9258 -77.4678 11° North 395 455 24,000 -610 Descending Washington Center
Sat 08:54:03 PM 37.0306 -77.4417 11° North 390 449 23,900 -454 Descending Washington Center
Sat 08:55:04 PM 37.1331 -77.4156 11° North 390 449 23,100 -541 Descending Washington Center
Sat 08:56:05 PM 37.2378 -77.3892 11° North 390 449 22,800 -712 Descending Washington Center
Sat 08:57:02 PM 37.3425 -77.3631 11° North 385 443 21,700 -1,169 Descending Washington Center
Sat 08:58:03 PM 37.4431 -77.3367 12° North 375 432 20,500 -1,339 Descending Washington Center
Sat 08:59:03 PM 37.5456 -77.3128 10° North 375 432 19,000 -1,300 Descending Washington Center
Sat 09:00:03 PM 37.6439 -77.2939 North 370 426 17,900 -1,289 Descending Washington Center
Sat 09:01:04 PM 37.7403 -77.2725 10° North 363 418 16,400 -1,500 Descending Washington Center
Sat 09:02:03 PM 37.8322 -77.2508 11° North 350 403 14,900 -1,400 Descending Washington Center
Sat 09:03:04 PM 37.9264 -77.2319 North 345 397 13,600 -1,279 Descending Washington Center
Sat 09:04:05 PM 38.0164 -77.2128 10° North 339 390 12,300 -1,261 Descending Washington Center
Sat 09:05:03 PM 38.1144 -77.1989 North 327 376 11,100 -1,109 Descending Washington Center
Sat 09:06:04 PM 38.2044 -77.1772 11° North 327 376 10,100 -550 Descending Washington Center
Sat 09:07:03 PM 38.2861 -77.1578 11° North 327 376 10,000 -50 Descending Washington Center
Sat 09:08:04 PM 38.3800 -77.1411 North 316 364 10,000  Level Washington Center
Sat 09:09:03 PM 38.4678 -77.1244 North 316 364 10,000 -454 Level Washington Center
Sat 09:10:03 PM 38.5453 -77.1075 10° North 304 350 9,100 -992 Descending Washington Center
Sat 09:11:04 PM 38.6183 -77.0903 10° North 286 329 8,000 -1,241 Descending Washington Center
Sat 09:11:30 PM 38.6500 -77.0833 10° North 265 305 7,300 -1,103 Descending Potomac TRACON
Sat 09:12:31 PM 38.7333 -77.0667 North 255 293 6,400 -694 Descending Potomac TRACON
Sat 09:13:31 PM 38.7833 -77.0833 345° North 243 280 5,900 -450 Descending Potomac TRACON
Sat 09:14:31 PM 38.8500 -77.1333 330° Northwest 232 267 5,500 -800 Descending Potomac TRACON
Sat 09:15:31 PM 38.8833 -77.1833 311° West 214 246 4,300 -1,028 Descending Potomac TRACON
Sat 09:17:32 PM 38.9500 -77.1333 30° Northeast 183 211 2,400 -942 Descending Potomac TRACON

Login

Don't have an account? Register now (free) for customized features, flight alerts, and more!